createdAt,value
2023-04-24T00:01:02.427Z,89.78
2023-04-24T00:03:31.622Z,89.70
2023-04-24T00:06:00.341Z,89.82
2023-04-24T00:08:28.101Z,89.61
2023-04-24T00:10:55.787Z,89.43
2023-04-24T00:13:23.711Z,89.55
2023-04-24T00:15:51.499Z,89.65
2023-04-24T00:18:20.846Z,89.76
2023-04-24T00:20:48.678Z,89.65
2023-04-24T00:23:16.960Z,89.40
2023-04-24T00:25:44.767Z,89.34
2023-04-24T00:28:12.796Z,89.67
2023-04-24T00:30:41.642Z,90.21
2023-04-24T00:33:10.220Z,89.93
2023-04-24T00:35:37.829Z,89.66
2023-04-24T00:38:05.788Z,89.75
2023-04-24T00:40:34.169Z,89.66
2023-04-24T00:43:03.755Z,89.60
2023-04-24T00:45:32.564Z,89.93
2023-04-24T00:48:00.876Z,90.09
2023-04-24T00:50:28.853Z,90.23
2023-04-24T00:52:57.457Z,90.06
2023-04-24T00:55:27.050Z,90.11
2023-04-24T00:57:55.311Z,90.23
2023-04-24T01:00:23.628Z,90.27
2023-04-24T01:02:53.380Z,90.06
2023-04-24T01:05:21.254Z,90.10
2023-04-24T01:07:50.347Z,90.05
2023-04-24T01:10:19.129Z,89.96
2023-04-24T01:12:48.076Z,89.97
2023-04-24T01:15:16.795Z,89.96
2023-04-24T01:17:45.085Z,89.96
2023-04-24T01:20:12.888Z,90.28
2023-04-24T01:22:43.012Z,90.23
2023-04-24T01:25:11.066Z,90.41
2023-04-24T01:27:39.173Z,90.28
2023-04-24T01:30:10.100Z,90.31
2023-04-24T01:32:38.138Z,90.77
2023-04-24T01:35:08.607Z,90.47
2023-04-24T01:37:38.697Z,90.74
2023-04-24T01:40:11.582Z,90.66
2023-04-24T01:42:40.858Z,90.65
2023-04-24T01:45:11.821Z,90.57
2023-04-24T01:47:40.010Z,90.27
2023-04-24T01:50:10.654Z,89.86
2023-04-24T01:52:40.724Z,89.88
2023-04-24T01:55:09.045Z,89.86
2023-04-24T01:57:36.975Z,90.35
2023-04-24T02:00:06.281Z,89.99
2023-04-24T02:02:41.722Z,89.99
2023-04-24T02:05:12.026Z,89.71
2023-04-24T02:07:42.717Z,89.59
2023-04-24T02:10:11.404Z,89.75
2023-04-24T02:12:45.674Z,89.57
2023-04-24T02:15:15.140Z,89.41
2023-04-24T02:17:43.388Z,89.15
2023-04-24T02:20:13.308Z,88.99
2023-04-24T02:22:43.586Z,89.07
2023-04-24T02:25:11.416Z,89.19
2023-04-24T02:27:41.347Z,89.11
2023-04-24T02:30:10.163Z,89.39
2023-04-24T02:32:40.395Z,89.58
2023-04-24T02:35:12.351Z,89.41
2023-04-24T02:37:40.108Z,89.39
2023-04-24T02:40:11.927Z,89.19
2023-04-24T02:42:40.561Z,89.07
2023-04-24T02:45:08.837Z,89.28
2023-04-24T02:47:37.134Z,89.28
2023-04-24T02:50:06.068Z,89.14
2023-04-24T02:52:34.871Z,89.49
2023-04-24T02:55:02.926Z,89.43
2023-04-24T02:57:31.538Z,89.25
2023-04-24T02:59:59.680Z,89.30
2023-04-24T03:02:29.346Z,89.48
2023-04-24T03:04:58.634Z,89.10
2023-04-24T03:07:28.856Z,89.12
2023-04-24T03:09:59.591Z,88.98
2023-04-24T03:12:28.780Z,89.55
2023-04-24T03:14:56.664Z,89.50
2023-04-24T03:17:26.607Z,89.72
2023-04-24T03:19:54.963Z,89.18
2023-04-24T03:22:23.010Z,89.12
2023-04-24T03:24:51.621Z,89.40
2023-04-24T03:27:20.408Z,89.57
2023-04-24T03:29:56.787Z,89.37
2023-04-24T03:32:43.857Z,89.25
2023-04-24T03:35:17.136Z,89.14
2023-04-24T03:37:45.154Z,89.37
2023-04-24T03:40:34.865Z,89.33
2023-04-24T03:43:04.683Z,89.29
2023-04-24T03:45:32.756Z,89.26
2023-04-24T03:48:01.018Z,89.31
2023-04-24T03:50:30.419Z,88.92
2023-04-24T03:52:59.188Z,89.64
2023-04-24T03:55:37.336Z,89.50
2023-04-24T03:58:05.184Z,90.03
2023-04-24T04:00:34.400Z,90.00
2023-04-24T04:03:22.394Z,89.80
2023-04-24T04:05:52.650Z,89.40
2023-04-24T04:08:22.539Z,89.55
2023-04-24T04:10:50.264Z,89.71
2023-04-24T04:13:17.929Z,89.64
2023-04-24T04:15:46.008Z,89.78
2023-04-24T04:18:14.379Z,89.79
2023-04-24T04:20:42.601Z,89.56
2023-04-24T04:23:11.819Z,89.49
2023-04-24T04:26:02.674Z,89.11
2023-04-24T04:28:41.217Z,88.27
2023-04-24T04:31:10.694Z,88.45
2023-04-24T04:33:40.684Z,87.14
2023-04-24T04:36:10.037Z,87.24
2023-04-24T04:38:44.326Z,87.21
2023-04-24T04:41:41.618Z,88.00
2023-04-24T04:44:11.349Z,87.48
2023-04-24T04:46:39.733Z,87.45
2023-04-24T04:49:20.053Z,87.03
2023-04-24T04:51:48.323Z,86.24
2023-04-24T04:54:17.388Z,86.13
2023-04-24T04:56:45.856Z,86.02
2023-04-24T04:59:14.173Z,85.27
2023-04-24T05:01:42.500Z,84.30
2023-04-24T05:04:12.128Z,83.33
2023-04-24T05:06:41.054Z,81.89
2023-04-24T05:09:09.051Z,82.48
2023-04-24T05:11:44.633Z,80.86
2023-04-24T05:14:13.919Z,79.55
2023-04-24T05:16:42.475Z,78.47
2023-04-24T05:19:13.052Z,78.23
2023-04-24T05:21:43.815Z,77.80
2023-04-24T05:24:12.667Z,76.26
2023-04-24T05:27:04.593Z,75.74
2023-04-24T05:29:38.369Z,69.92
2023-04-24T05:32:08.419Z,69.46
2023-04-24T05:34:37.771Z,69.68
2023-04-24T05:37:09.475Z,69.80
2023-04-24T05:39:37.811Z,69.02
2023-04-24T05:42:06.854Z,70.22
2023-04-24T05:44:34.992Z,70.67
2023-04-24T05:47:03.546Z,70.28
2023-04-24T05:49:31.432Z,70.38
2023-04-24T05:52:00.098Z,69.64
2023-04-24T05:54:28.292Z,69.95
2023-04-24T05:56:57.832Z,70.09
2023-04-24T05:59:40.280Z,70.27
2023-04-24T06:02:09.107Z,69.52
2023-04-24T06:04:37.268Z,69.70
2023-04-24T06:07:06.068Z,70.50
2023-04-24T06:09:34.284Z,69.52
2023-04-24T06:12:02.706Z,68.76
2023-04-24T06:14:42.981Z,69.04
2023-04-24T06:17:17.896Z,68.89
2023-04-24T06:19:47.498Z,66.10
2023-04-24T06:22:16.474Z,64.99
2023-04-24T06:24:45.228Z,64.96
2023-04-24T06:27:14.532Z,65.07
2023-04-24T06:29:44.537Z,64.85
2023-04-24T06:32:13.508Z,64.84
2023-04-24T06:34:41.739Z,63.46
2023-04-24T06:37:09.442Z,64.26
2023-04-24T06:39:40.211Z,63.66
2023-04-24T06:42:10.675Z,63.79
2023-04-24T06:44:42.249Z,61.78
2023-04-24T06:47:13.094Z,62.79
2023-04-24T06:49:41.434Z,61.59
2023-04-24T06:52:10.152Z,62.32
2023-04-24T06:54:47.229Z,61.92
2023-04-24T06:57:15.504Z,59.76
2023-04-24T06:59:44.171Z,58.34
2023-04-24T07:02:12.698Z,59.28
2023-04-24T07:04:41.413Z,59.03
2023-04-24T07:07:14.316Z,58.11
2023-04-24T07:09:44.116Z,57.26
2023-04-24T07:12:12.726Z,57.56
2023-04-24T07:14:44.749Z,57.58
2023-04-24T07:17:15.391Z,58.39
2023-04-24T07:19:43.786Z,57.92
2023-04-24T07:22:18.062Z,58.02
2023-04-24T07:24:46.716Z,56.59
2023-04-24T07:27:16.344Z,55.36
2023-04-24T07:29:44.587Z,58.15
2023-04-24T07:32:12.826Z,53.63
2023-04-24T07:34:40.687Z,56.56
2023-04-24T07:37:14.385Z,54.61
2023-04-24T07:39:44.071Z,56.48
2023-04-24T07:42:12.490Z,54.62
2023-04-24T07:44:41.832Z,53.35
2023-04-24T07:47:10.097Z,54.41
2023-04-24T07:49:38.208Z,54.35
2023-04-24T07:52:06.600Z,53.30
2023-04-24T07:54:36.403Z,53.47
2023-04-24T07:57:04.524Z,54.90
2023-04-24T07:59:32.324Z,55.12
2023-04-24T08:02:02.600Z,56.22
2023-04-24T08:04:31.837Z,56.44
2023-04-24T08:06:59.989Z,58.01
2023-04-24T08:09:30.016Z,55.67
2023-04-24T08:11:59.439Z,55.10
2023-04-24T08:14:28.126Z,55.33
2023-04-24T08:16:57.228Z,55.04
2023-04-24T08:19:25.049Z,54.02
2023-04-24T08:21:53.588Z,53.98
2023-04-24T08:24:21.517Z,54.75
2023-04-24T08:26:52.121Z,56.05
2023-04-24T08:29:19.816Z,56.24
2023-04-24T08:31:49.647Z,55.15
2023-04-24T08:34:17.492Z,55.36
2023-04-24T08:36:47.583Z,55.08
2023-04-24T08:39:16.458Z,54.97
2023-04-24T08:41:44.775Z,53.88
2023-04-24T08:44:13.976Z,54.73
2023-04-24T08:46:42.350Z,55.46
2023-04-24T08:49:10.207Z,54.12
2023-04-24T08:51:38.718Z,53.21
2023-04-24T08:54:08.924Z,54.86
2023-04-24T08:56:40.856Z,53.23
2023-04-24T08:59:10.489Z,52.07
2023-04-24T09:01:40.912Z,53.73
2023-04-24T09:04:11.556Z,51.25
2023-04-24T09:06:42.818Z,53.97
2023-04-24T09:09:11.176Z,52.03
2023-04-24T09:11:40.240Z,50.27
2023-04-24T09:14:08.595Z,52.16
2023-04-24T09:16:38.953Z,49.76
2023-04-24T09:19:06.865Z,51.64
2023-04-24T09:21:37.615Z,51.59
2023-04-24T09:24:08.463Z,49.46
2023-04-24T09:26:37.151Z,47.04
2023-04-24T09:29:05.590Z,46.36
2023-04-24T09:31:33.624Z,46.27
2023-04-24T09:34:07.187Z,46.69
2023-04-24T09:36:43.709Z,48.20
2023-04-24T09:39:18.010Z,47.17
2023-04-24T09:41:50.875Z,47.20
2023-04-24T09:44:31.542Z,46.19
2023-04-24T09:47:00.069Z,47.51
2023-04-24T09:49:32.003Z,47.58
2023-04-24T09:52:09.957Z,47.76
2023-04-24T09:54:39.678Z,49.73
2023-04-24T09:57:11.366Z,49.72
2023-04-24T09:59:52.321Z,47.63
2023-04-24T10:02:26.197Z,48.52
2023-04-24T10:05:00.755Z,50.45
2023-04-24T10:07:32.876Z,46.94
2023-04-24T10:10:02.112Z,47.65
2023-04-24T10:12:31.021Z,48.29
2023-04-24T10:14:59.196Z,46.75
2023-04-24T10:17:27.067Z,47.37
2023-04-24T10:20:04.669Z,47.76
2023-04-24T10:22:32.976Z,47.46
2023-04-24T10:25:01.012Z,45.38
2023-04-24T10:27:29.808Z,46.05
2023-04-24T10:29:58.670Z,46.01
2023-04-24T10:32:31.988Z,48.49
2023-04-24T10:34:59.823Z,46.90
2023-04-24T10:37:27.528Z,46.56
2023-04-24T10:39:57.304Z,46.13
2023-04-24T10:42:25.338Z,46.96
2023-04-24T10:44:52.947Z,45.37
2023-04-24T10:47:20.630Z,44.82
2023-04-24T10:49:53.237Z,42.89
2023-04-24T10:52:21.949Z,44.51
2023-04-24T10:54:50.568Z,44.42
2023-04-24T10:57:30.003Z,44.04
2023-04-24T11:00:22.405Z,44.99
2023-04-24T11:02:52.102Z,43.74
2023-04-24T11:05:21.051Z,46.87
2023-04-24T11:08:19.690Z,46.20
2023-04-24T11:10:49.063Z,45.68
2023-04-24T11:13:18.541Z,44.91
2023-04-24T11:15:46.152Z,45.34
2023-04-24T11:18:16.073Z,45.58
2023-04-24T11:20:44.861Z,46.01
2023-04-24T11:23:13.594Z,45.52
2023-04-24T11:25:41.717Z,48.03
2023-04-24T11:28:09.440Z,44.46
2023-04-24T11:30:38.769Z,44.33
2023-04-24T11:33:06.512Z,43.26
2023-04-24T11:35:40.451Z,43.64
2023-04-24T11:38:19.426Z,44.40
2023-04-24T11:40:51.921Z,44.43
2023-04-24T11:43:20.403Z,43.36
2023-04-24T11:45:51.329Z,41.87
2023-04-24T11:48:23.667Z,40.46
2023-04-24T11:50:51.715Z,41.78
2023-04-24T11:53:22.973Z,42.78
2023-04-24T11:55:50.416Z,43.42
2023-04-24T11:58:17.972Z,45.07
2023-04-24T12:00:46.799Z,41.61
2023-04-24T12:03:15.020Z,42.05
2023-04-24T12:05:42.797Z,43.95
2023-04-24T12:08:10.674Z,42.04
2023-04-24T12:10:38.543Z,42.54
2023-04-24T12:13:06.581Z,41.83
2023-04-24T12:15:34.507Z,40.36
2023-04-24T12:18:02.246Z,38.14
2023-04-24T12:20:31.778Z,38.51
2023-04-24T12:23:00.508Z,38.25
2023-04-24T12:25:29.288Z,38.77
2023-04-24T12:28:06.024Z,39.87
2023-04-24T12:30:35.167Z,39.67
2023-04-24T12:33:03.671Z,38.76
2023-04-24T12:35:36.859Z,39.69
2023-04-24T12:38:09.184Z,39.19
2023-04-24T12:40:36.884Z,38.18
2023-04-24T12:43:13.769Z,39.40
2023-04-24T12:45:41.264Z,38.64
2023-04-24T12:48:08.977Z,37.18
2023-04-24T12:50:36.609Z,37.16
2023-04-24T12:53:04.433Z,35.96
2023-04-24T12:55:32.716Z,36.71
2023-04-24T12:58:00.194Z,36.02
2023-04-24T13:00:27.902Z,36.15
2023-04-24T13:02:55.693Z,35.28
2023-04-24T13:05:25.257Z,35.67
2023-04-24T13:07:52.972Z,34.33
2023-04-24T13:10:20.582Z,35.18
2023-04-24T13:12:48.103Z,33.58
2023-04-24T13:15:18.348Z,34.20
2023-04-24T13:17:46.035Z,34.68
2023-04-24T13:20:13.585Z,35.32
2023-04-24T13:22:41.299Z,35.77
2023-04-24T13:25:08.980Z,36.60
2023-04-24T13:27:36.920Z,36.53
2023-04-24T13:30:04.683Z,37.54
2023-04-24T13:32:33.449Z,37.20
2023-04-24T13:35:01.305Z,36.73
2023-04-24T13:37:29.276Z,36.71
2023-04-24T13:39:57.094Z,37.03
2023-04-24T13:42:24.667Z,38.09
2023-04-24T13:44:52.845Z,38.58
2023-04-24T13:47:20.295Z,39.83
2023-04-24T13:49:47.893Z,40.15
2023-04-24T13:52:15.777Z,40.45
2023-04-24T13:54:43.298Z,39.77
2023-04-24T13:57:10.892Z,39.76
2023-04-24T13:59:38.554Z,39.05
2023-04-24T14:02:06.138Z,38.08
2023-04-24T14:04:34.336Z,38.50
2023-04-24T14:07:01.952Z,39.62
2023-04-24T14:09:29.542Z,39.87
2023-04-24T14:11:56.994Z,41.26
2023-04-24T14:14:24.567Z,40.40
2023-04-24T14:16:52.285Z,40.91
2023-04-24T14:19:21.113Z,41.47
2023-04-24T14:21:48.577Z,41.49
2023-04-24T14:24:16.692Z,41.78
2023-04-24T14:26:44.838Z,42.25
2023-04-24T14:29:15.190Z,43.56
2023-04-24T14:31:43.592Z,43.20
2023-04-24T14:34:11.185Z,43.20
2023-04-24T14:36:38.792Z,43.48
2023-04-24T14:39:08.231Z,42.70
2023-04-24T14:41:37.102Z,41.47
2023-04-24T14:44:05.112Z,40.24
2023-04-24T14:46:32.741Z,38.52
2023-04-24T14:49:00.259Z,37.61
2023-04-24T14:51:28.123Z,39.51
2023-04-24T14:53:55.712Z,36.70
2023-04-24T14:56:23.182Z,37.17
2023-04-24T14:58:50.976Z,36.76
2023-04-24T15:01:19.118Z,36.69
2023-04-24T15:03:47.290Z,37.29
2023-04-24T15:06:15.089Z,35.87
2023-04-24T15:08:43.146Z,36.79
2023-04-24T15:11:11.041Z,35.54
2023-04-24T15:13:38.915Z,34.77
2023-04-24T15:16:06.663Z,36.05
2023-04-24T15:18:34.598Z,35.44
2023-04-24T15:21:02.061Z,34.52
2023-04-24T15:23:29.775Z,35.05
2023-04-24T15:25:57.699Z,35.21
2023-04-24T15:28:25.923Z,35.35
2023-04-24T15:30:53.390Z,36.00
2023-04-24T15:33:20.993Z,37.29
2023-04-24T15:35:49.755Z,37.49
2023-04-24T15:38:17.287Z,37.14
2023-04-24T15:40:45.780Z,37.06
2023-04-24T15:43:13.258Z,37.43
2023-04-24T15:45:41.006Z,37.42
2023-04-24T15:48:08.569Z,37.68
2023-04-24T15:50:36.084Z,38.17
2023-04-24T15:53:03.661Z,39.15
2023-04-24T15:55:31.720Z,39.49
2023-04-24T15:57:59.270Z,39.65
2023-04-24T16:00:28.956Z,40.72
2023-04-24T16:02:56.540Z,46.24
2023-04-24T16:05:24.685Z,48.18
2023-04-24T16:07:52.197Z,51.08
2023-04-24T16:10:19.839Z,51.07
2023-04-24T16:12:47.400Z,51.54
2023-04-24T16:15:15.008Z,53.60
2023-04-24T16:17:42.475Z,53.31
2023-04-24T16:20:10.758Z,55.72
2023-04-24T16:22:39.278Z,56.25
2023-04-24T16:25:07.656Z,56.94
2023-04-24T16:27:35.242Z,59.05
2023-04-24T16:30:03.132Z,58.39
2023-04-24T16:32:31.238Z,59.56
2023-04-24T16:34:58.922Z,61.27
2023-04-24T16:37:26.628Z,61.36
2023-04-24T16:39:55.227Z,62.22
2023-04-24T16:42:22.756Z,63.12
2023-04-24T16:44:50.757Z,63.14
2023-04-24T16:47:18.887Z,62.07
2023-04-24T16:49:46.418Z,62.66
2023-04-24T16:52:14.001Z,61.99
2023-04-24T16:54:41.564Z,62.38
2023-04-24T16:57:09.127Z,62.64
2023-04-24T16:59:37.146Z,63.27
2023-04-24T17:02:05.054Z,63.93
2023-04-24T17:04:35.855Z,65.12
2023-04-24T17:07:03.660Z,66.17
2023-04-24T17:09:31.307Z,66.68
2023-04-24T17:11:58.818Z,67.87
2023-04-24T17:14:26.663Z,68.73
2023-04-24T17:16:54.337Z,69.61
2023-04-24T17:19:22.024Z,70.39
2023-04-24T17:21:49.484Z,70.84
2023-04-24T17:24:16.932Z,70.68
2023-04-24T17:26:44.477Z,71.03
2023-04-24T17:29:13.349Z,70.81
2023-04-24T17:31:41.819Z,70.73
2023-04-24T17:34:10.322Z,70.47
2023-04-24T17:36:38.560Z,70.78
2023-04-24T17:39:06.410Z,71.99
2023-04-24T17:41:34.266Z,72.36
2023-04-24T17:44:01.785Z,72.29
2023-04-24T17:46:29.716Z,72.25
2023-04-24T17:48:57.396Z,72.65
2023-04-24T17:51:24.929Z,73.76
2023-04-24T17:53:52.448Z,74.24
2023-04-24T17:56:19.993Z,74.82
2023-04-24T17:58:47.816Z,74.13
2023-04-24T18:01:15.644Z,73.43
2023-04-24T18:03:44.599Z,73.21
2023-04-24T18:06:13.750Z,73.87
2023-04-24T18:08:41.867Z,74.12
2023-04-24T18:11:09.383Z,74.16
2023-04-24T18:13:38.636Z,74.50
2023-04-24T18:16:06.149Z,74.50
2023-04-24T18:18:33.895Z,74.79
2023-04-24T18:21:01.368Z,75.22
2023-04-24T18:23:29.147Z,75.48
2023-04-24T18:25:56.661Z,75.58
2023-04-24T18:28:24.394Z,76.08
2023-04-24T18:30:51.897Z,76.34
2023-04-24T18:33:19.429Z,76.52
2023-04-24T18:35:46.911Z,76.60
2023-04-24T18:38:14.384Z,76.83
2023-04-24T18:40:42.229Z,77.68
2023-04-24T18:43:09.647Z,77.62
2023-04-24T18:45:37.145Z,78.35
2023-04-24T18:48:04.895Z,78.52
2023-04-24T18:50:33.421Z,78.16
2023-04-24T18:53:01.600Z,78.36
2023-04-24T18:55:29.571Z,77.89
2023-04-24T18:57:57.097Z,77.72
2023-04-24T19:00:24.614Z,78.04
2023-04-24T19:02:52.196Z,78.68
2023-04-24T19:05:19.859Z,78.90
2023-04-24T19:07:47.714Z,79.52
2023-04-24T19:10:15.259Z,78.97
2023-04-24T19:12:42.785Z,79.75
2023-04-24T19:15:11.927Z,79.12
2023-04-24T19:17:39.771Z,78.81
2023-04-24T19:20:08.555Z,78.20
2023-04-24T19:22:37.116Z,78.49
2023-04-24T19:25:05.503Z,77.91
2023-04-24T19:27:33.290Z,77.88
2023-04-24T19:30:00.850Z,77.89
2023-04-24T19:32:29.678Z,77.84
2023-04-24T19:34:58.074Z,79.10
2023-04-24T19:37:26.476Z,78.81
2023-04-24T19:39:54.157Z,78.68
2023-04-24T19:42:35.782Z,78.51
2023-04-24T19:45:12.708Z,78.43
2023-04-24T19:47:42.754Z,78.56
2023-04-24T19:50:12.354Z,78.79
2023-04-24T19:52:40.136Z,78.82
2023-04-24T19:55:09.181Z,78.90
2023-04-24T19:57:36.957Z,79.29
2023-04-24T20:00:05.194Z,79.50
2023-04-24T20:02:36.248Z,79.52
2023-04-24T20:05:07.659Z,79.59
2023-04-24T20:07:36.951Z,79.91
2023-04-24T20:10:06.270Z,80.05
2023-04-24T20:12:36.941Z,80.13
2023-04-24T20:15:05.294Z,80.23
2023-04-24T20:17:33.681Z,82.02
2023-04-24T20:20:01.409Z,82.79
2023-04-24T20:22:30.465Z,81.90
2023-04-24T20:24:59.805Z,82.74
2023-04-24T20:27:27.491Z,82.96
2023-04-24T20:29:57.377Z,82.61
2023-04-24T20:32:27.996Z,82.34
2023-04-24T20:34:55.737Z,82.22
2023-04-24T20:37:25.233Z,82.50
2023-04-24T20:39:53.119Z,82.74
2023-04-24T20:42:21.248Z,87.08
2023-04-24T20:44:49.106Z,84.54
2023-04-24T20:47:17.421Z,83.43
2023-04-24T20:49:45.124Z,84.06
2023-04-24T20:52:14.366Z,83.36
2023-04-24T20:54:42.337Z,83.20
2023-04-24T20:57:10.649Z,83.29
2023-04-24T20:59:39.566Z,83.20
2023-04-24T21:02:07.752Z,82.85
2023-04-24T21:04:38.839Z,83.17
2023-04-24T21:07:06.664Z,82.79
2023-04-24T21:09:34.640Z,83.20
2023-04-24T21:12:03.353Z,83.74
2023-04-24T21:14:32.246Z,83.39
2023-04-24T21:17:00.375Z,82.97
2023-04-24T21:19:28.168Z,82.60
2023-04-24T21:21:56.362Z,82.52
2023-04-24T21:24:24.435Z,82.19
2023-04-24T21:26:53.090Z,82.56
2023-04-24T21:29:23.690Z,82.84
2023-04-24T21:31:53.006Z,82.53
2023-04-24T21:34:20.738Z,82.55
2023-04-24T21:36:48.578Z,82.92
2023-04-24T21:39:16.218Z,82.29
2023-04-24T21:41:44.397Z,81.87
2023-04-24T21:44:12.732Z,81.56
2023-04-24T21:46:42.915Z,80.95
2023-04-24T21:49:10.846Z,80.75
2023-04-24T21:51:38.933Z,80.64
2023-04-24T21:54:07.095Z,81.19
2023-04-24T21:56:34.765Z,80.98
2023-04-24T21:59:03.509Z,81.15
2023-04-24T22:01:33.443Z,83.30
2023-04-24T22:04:03.491Z,82.71
2023-04-24T22:06:32.542Z,82.88
2023-04-24T22:09:01.202Z,83.36
2023-04-24T22:11:29.199Z,82.33
2023-04-24T22:13:56.959Z,82.07
2023-04-24T22:16:24.734Z,82.00
2023-04-24T22:18:55.572Z,81.80
2023-04-24T22:21:23.548Z,82.04
2023-04-24T22:23:52.929Z,81.93
2023-04-24T22:26:21.256Z,81.71
2023-04-24T22:28:50.006Z,81.80
2023-04-24T22:31:17.909Z,81.63
2023-04-24T22:33:46.935Z,81.63
2023-04-24T22:36:16.187Z,82.26
2023-04-24T22:38:43.933Z,82.63
2023-04-24T22:41:12.751Z,82.57
2023-04-24T22:43:40.596Z,82.19
2023-04-24T22:46:08.300Z,82.23
2023-04-24T22:48:36.773Z,82.48
2023-04-24T22:51:04.642Z,82.56
2023-04-24T22:53:32.417Z,83.03
2023-04-24T22:56:00.349Z,82.84
2023-04-24T22:58:28.297Z,82.77
2023-04-24T23:00:56.479Z,82.98
2023-04-24T23:03:25.666Z,82.77
2023-04-24T23:05:53.901Z,82.54
2023-04-24T23:08:21.896Z,82.88
2023-04-24T23:10:50.043Z,83.39
2023-04-24T23:13:18.137Z,83.58
2023-04-24T23:15:46.519Z,83.39
2023-04-24T23:18:14.096Z,83.45
2023-04-24T23:20:42.052Z,83.43
2023-04-24T23:23:09.904Z,83.12
2023-04-24T23:25:38.205Z,83.44
2023-04-24T23:28:05.892Z,83.26
2023-04-24T23:30:34.616Z,82.82
2023-04-24T23:33:02.804Z,82.86
2023-04-24T23:35:31.108Z,83.15
2023-04-24T23:38:00.540Z,85.18
2023-04-24T23:40:28.284Z,85.70
2023-04-24T23:43:06.100Z,85.49
2023-04-24T23:45:35.834Z,85.20
2023-04-24T23:48:04.727Z,84.99
2023-04-24T23:50:33.401Z,84.49
2023-04-24T23:53:01.701Z,84.67
2023-04-24T23:55:30.265Z,84.89
2023-04-24T23:57:58.556Z,85.39
